sensor_id;sensor_type;location;lat;lon;timestamp;P1;durP1;ratioP1;P2;durP2;ratioP2
21890;SDS011;11110;52.386;16.940;2022-09-09T00:01:00;38.78;;;14.05;;
21890;SDS011;11110;52.386;16.940;2022-09-09T00:03:39;27.98;;;11.25;;
21890;SDS011;11110;52.386;16.940;2022-09-09T00:06:14;49.88;;;13.70;;
21890;SDS011;11110;52.386;16.940;2022-09-09T00:08:59;34.13;;;13.38;;
21890;SDS011;11110;52.386;16.940;2022-09-09T00:11:33;47.10;;;21.67;;
21890;SDS011;11110;52.386;16.940;2022-09-09T00:14:11;42.25;;;18.50;;
21890;SDS011;11110;52.386;16.940;2022-09-09T00:16:46;31.48;;;16.48;;
21890;SDS011;11110;52.386;16.940;2022-09-09T00:19:20;28.80;;;15.40;;
21890;SDS011;11110;52.386;16.940;2022-09-09T00:21:54;40.78;;;15.90;;
21890;SDS011;11110;52.386;16.940;2022-09-09T00:24:37;32.65;;;17.17;;
21890;SDS011;11110;52.386;16.940;2022-09-09T00:27:11;37.67;;;17.65;;
21890;SDS011;11110;52.386;16.940;2022-09-09T00:29:45;37.85;;;18.00;;
21890;SDS011;11110;52.386;16.940;2022-09-09T00:32:20;38.05;;;15.65;;
21890;SDS011;11110;52.386;16.940;2022-09-09T00:34:51;37.85;;;17.25;;
21890;SDS011;11110;52.386;16.940;2022-09-09T00:37:23;33.70;;;17.05;;
21890;SDS011;11110;52.386;16.940;2022-09-09T00:39:55;34.70;;;17.52;;
21890;SDS011;11110;52.386;16.940;2022-09-09T00:42:31;37.97;;;15.35;;
21890;SDS011;11110;52.386;16.940;2022-09-09T00:45:09;34.47;;;14.32;;
21890;SDS011;11110;52.386;16.940;2022-09-09T00:47:52;39.13;;;16.92;;
21890;SDS011;11110;52.386;16.940;2022-09-09T00:50:25;36.08;;;14.65;;
21890;SDS011;11110;52.386;16.940;2022-09-09T00:53:05;36.30;;;15.32;;
21890;SDS011;11110;52.386;16.940;2022-09-09T00:55:47;32.75;;;11.35;;
21890;SDS011;11110;52.386;16.940;2022-09-09T00:58:21;28.63;;;13.85;;
21890;SDS011;11110;52.386;16.940;2022-09-09T01:00:51;34.85;;;13.40;;
21890;SDS011;11110;52.386;16.940;2022-09-09T01:03:27;31.58;;;14.77;;
21890;SDS011;11110;52.386;16.940;2022-09-09T01:06:02;37.40;;;12.77;;
21890;SDS011;11110;52.386;16.940;2022-09-09T01:08:49;32.38;;;12.65;;
21890;SDS011;11110;52.386;16.940;2022-09-09T01:11:49;28.90;;;11.35;;
21890;SDS011;11110;52.386;16.940;2022-09-09T01:14:35;34.28;;;10.70;;
21890;SDS011;11110;52.386;16.940;2022-09-09T01:17:11;38.22;;;11.20;;
21890;SDS011;11110;52.386;16.940;2022-09-09T01:19:52;32.80;;;10.15;;
21890;SDS011;11110;52.386;16.940;2022-09-09T01:22:30;39.10;;;11.00;;
21890;SDS011;11110;52.386;16.940;2022-09-09T01:25:09;32.10;;;9.48;;
21890;SDS011;11110;52.386;16.940;2022-09-09T01:28:00;43.60;;;11.05;;
21890;SDS011;11110;52.386;16.940;2022-09-09T01:30:32;30.30;;;9.40;;
21890;SDS011;11110;52.386;16.940;2022-09-09T01:33:02;26.83;;;8.30;;
21890;SDS011;11110;52.386;16.940;2022-09-09T01:35:39;34.63;;;9.95;;
21890;SDS011;11110;52.386;16.940;2022-09-09T01:38:11;27.80;;;9.13;;
21890;SDS011;11110;52.386;16.940;2022-09-09T01:40:40;29.10;;;8.90;;
21890;SDS011;11110;52.386;16.940;2022-09-09T01:43:10;37.03;;;9.93;;
21890;SDS011;11110;52.386;16.940;2022-09-09T01:45:39;22.88;;;8.50;;
21890;SDS011;11110;52.386;16.940;2022-09-09T01:48:10;27.35;;;8.90;;
21890;SDS011;11110;52.386;16.940;2022-09-09T01:50:44;44.05;;;11.32;;
21890;SDS011;11110;52.386;16.940;2022-09-09T01:53:13;28.20;;;8.35;;
21890;SDS011;11110;52.386;16.940;2022-09-09T01:55:47;34.70;;;8.05;;
21890;SDS011;11110;52.386;16.940;2022-09-09T01:58:24;30.27;;;9.48;;
21890;SDS011;11110;52.386;16.940;2022-09-09T02:01:01;23.88;;;8.50;;
21890;SDS011;11110;52.386;16.940;2022-09-09T02:03:36;29.70;;;10.32;;
21890;SDS011;11110;52.386;16.940;2022-09-09T02:06:19;31.80;;;10.82;;
21890;SDS011;11110;52.386;16.940;2022-09-09T02:09:01;31.73;;;11.75;;
21890;SDS011;11110;52.386;16.940;2022-09-09T02:11:33;29.73;;;10.98;;
21890;SDS011;11110;52.386;16.940;2022-09-09T02:14:14;26.05;;;10.95;;
21890;SDS011;11110;52.386;16.940;2022-09-09T02:16:48;31.08;;;12.52;;
21890;SDS011;11110;52.386;16.940;2022-09-09T02:19:26;29.70;;;10.20;;
21890;SDS011;11110;52.386;16.940;2022-09-09T02:22:12;34.40;;;11.43;;
21890;SDS011;11110;52.386;16.940;2022-09-09T02:24:41;31.98;;;12.63;;
21890;SDS011;11110;52.386;16.940;2022-09-09T02:27:19;31.10;;;15.50;;
21890;SDS011;11110;52.386;16.940;2022-09-09T02:29:51;56.17;;;24.10;;
21890;SDS011;11110;52.386;16.940;2022-09-09T02:32:34;37.55;;;19.88;;
21890;SDS011;11110;52.386;16.940;2022-09-09T02:35:07;33.25;;;9.80;;
21890;SDS011;11110;52.386;16.940;2022-09-09T02:37:41;33.90;;;16.20;;
21890;SDS011;11110;52.386;16.940;2022-09-09T02:40:13;26.33;;;15.00;;
21890;SDS011;11110;52.386;16.940;2022-09-09T02:42:48;31.40;;;15.65;;
21890;SDS011;11110;52.386;16.940;2022-09-09T02:45:21;31.60;;;19.92;;
21890;SDS011;11110;52.386;16.940;2022-09-09T02:47:56;38.45;;;25.65;;
21890;SDS011;11110;52.386;16.940;2022-09-09T02:50:32;30.30;;;20.95;;
21890;SDS011;11110;52.386;16.940;2022-09-09T02:53:06;37.60;;;28.80;;
21890;SDS011;11110;52.386;16.940;2022-09-09T02:55:42;28.58;;;18.88;;
21890;SDS011;11110;52.386;16.940;2022-09-09T02:58:17;30.73;;;23.35;;
21890;SDS011;11110;52.386;16.940;2022-09-09T03:00:56;37.58;;;20.98;;
21890;SDS011;11110;52.386;16.940;2022-09-09T03:03:26;36.75;;;23.98;;
21890;SDS011;11110;52.386;16.940;2022-09-09T03:05:55;26.90;;;9.32;;
21890;SDS011;11110;52.386;16.940;2022-09-09T03:08:26;28.92;;;8.77;;
21890;SDS011;11110;52.386;16.940;2022-09-09T03:10:57;21.55;;;8.93;;
21890;SDS011;11110;52.386;16.940;2022-09-09T03:13:30;23.95;;;7.70;;
21890;SDS011;11110;52.386;16.940;2022-09-09T03:16:00;23.85;;;8.65;;
21890;SDS011;11110;52.386;16.940;2022-09-09T03:18:31;32.60;;;12.63;;
21890;SDS011;11110;52.386;16.940;2022-09-09T03:21:01;33.30;;;21.23;;
21890;SDS011;11110;52.386;16.940;2022-09-09T03:23:29;38.92;;;29.20;;
21890;SDS011;11110;52.386;16.940;2022-09-09T03:26:01;39.38;;;32.67;;
21890;SDS011;11110;52.386;16.940;2022-09-09T03:28:38;42.72;;;34.03;;
21890;SDS011;11110;52.386;16.940;2022-09-09T03:31:08;37.63;;;29.40;;
21890;SDS011;11110;52.386;16.940;2022-09-09T03:33:40;57.22;;;38.90;;
21890;SDS011;11110;52.386;16.940;2022-09-09T03:36:12;71.03;;;43.85;;
21890;SDS011;11110;52.386;16.940;2022-09-09T03:38:40;62.80;;;41.30;;
21890;SDS011;11110;52.386;16.940;2022-09-09T03:41:09;47.60;;;39.47;;
21890;SDS011;11110;52.386;16.940;2022-09-09T03:43:39;38.40;;;31.10;;
21890;SDS011;11110;52.386;16.940;2022-09-09T03:46:09;39.78;;;30.13;;
21890;SDS011;11110;52.386;16.940;2022-09-09T03:48:38;40.97;;;33.65;;
21890;SDS011;11110;52.386;16.940;2022-09-09T03:51:07;37.00;;;33.13;;
21890;SDS011;11110;52.386;16.940;2022-09-09T03:53:35;31.02;;;25.85;;
21890;SDS011;11110;52.386;16.940;2022-09-09T03:56:05;50.80;;;34.22;;
21890;SDS011;11110;52.386;16.940;2022-09-09T03:58:34;54.10;;;37.42;;
21890;SDS011;11110;52.386;16.940;2022-09-09T04:01:06;60.50;;;45.20;;
21890;SDS011;11110;52.386;16.940;2022-09-09T04:03:39;66.35;;;41.70;;
21890;SDS011;11110;52.386;16.940;2022-09-09T04:06:09;72.15;;;47.47;;
21890;SDS011;11110;52.386;16.940;2022-09-09T04:08:41;27.75;;;9.05;;
21890;SDS011;11110;52.386;16.940;2022-09-09T04:11:13;52.97;;;13.75;;
21890;SDS011;11110;52.386;16.940;2022-09-09T04:13:42;55.65;;;18.42;;
21890;SDS011;11110;52.386;16.940;2022-09-09T04:16:12;73.30;;;48.38;;
21890;SDS011;11110;52.386;16.940;2022-09-09T04:18:44;81.18;;;52.08;;
21890;SDS011;11110;52.386;16.940;2022-09-09T04:21:14;82.07;;;52.50;;
21890;SDS011;11110;52.386;16.940;2022-09-09T04:23:43;81.75;;;52.80;;
21890;SDS011;11110;52.386;16.940;2022-09-09T04:26:11;63.70;;;48.95;;
21890;SDS011;11110;52.386;16.940;2022-09-09T04:28:40;50.75;;;45.50;;
21890;SDS011;11110;52.386;16.940;2022-09-09T04:31:15;66.68;;;49.47;;
21890;SDS011;11110;52.386;16.940;2022-09-09T04:33:49;53.78;;;38.72;;
21890;SDS011;11110;52.386;16.940;2022-09-09T04:36:19;59.47;;;47.20;;
21890;SDS011;11110;52.386;16.940;2022-09-09T04:38:49;41.60;;;37.25;;
21890;SDS011;11110;52.386;16.940;2022-09-09T04:41:17;53.03;;;47.05;;
21890;SDS011;11110;52.386;16.940;2022-09-09T04:43:49;51.40;;;45.88;;
21890;SDS011;11110;52.386;16.940;2022-09-09T04:46:21;55.00;;;46.90;;
21890;SDS011;11110;52.386;16.940;2022-09-09T04:48:52;56.03;;;44.42;;
21890;SDS011;11110;52.386;16.940;2022-09-09T04:51:25;63.47;;;50.05;;
21890;SDS011;11110;52.386;16.940;2022-09-09T04:53:53;31.92;;;13.65;;
21890;SDS011;11110;52.386;16.940;2022-09-09T04:56:22;34.42;;;12.82;;
21890;SDS011;11110;52.386;16.940;2022-09-09T04:58:56;28.23;;;14.70;;
21890;SDS011;11110;52.386;16.940;2022-09-09T05:01:37;50.70;;;45.38;;
21890;SDS011;11110;52.386;16.940;2022-09-09T05:04:06;59.15;;;48.45;;
21890;SDS011;11110;52.386;16.940;2022-09-09T05:06:35;53.50;;;47.75;;
21890;SDS011;11110;52.386;16.940;2022-09-09T05:09:04;64.47;;;57.58;;
21890;SDS011;11110;52.386;16.940;2022-09-09T05:11:33;54.97;;;49.15;;
21890;SDS011;11110;52.386;16.940;2022-09-09T05:14:15;64.30;;;51.03;;
21890;SDS011;11110;52.386;16.940;2022-09-09T05:16:44;56.10;;;50.45;;
21890;SDS011;11110;52.386;16.940;2022-09-09T05:19:15;57.25;;;51.08;;
21890;SDS011;11110;52.386;16.940;2022-09-09T05:21:49;54.58;;;48.20;;
21890;SDS011;11110;52.386;16.940;2022-09-09T05:24:22;58.05;;;51.15;;
21890;SDS011;11110;52.386;16.940;2022-09-09T05:26:53;27.23;;;13.65;;
21890;SDS011;11110;52.386;16.940;2022-09-09T05:29:26;22.83;;;15.65;;
21890;SDS011;11110;52.386;16.940;2022-09-09T05:31:56;33.13;;;13.43;;
21890;SDS011;11110;52.386;16.940;2022-09-09T05:34:25;35.20;;;29.77;;
21890;SDS011;11110;52.386;16.940;2022-09-09T05:36:54;54.22;;;44.72;;
21890;SDS011;11110;52.386;16.940;2022-09-09T05:39:24;54.85;;;47.55;;
21890;SDS011;11110;52.386;16.940;2022-09-09T05:41:53;53.40;;;47.85;;
21890;SDS011;11110;52.386;16.940;2022-09-09T05:44:22;58.97;;;50.85;;
21890;SDS011;11110;52.386;16.940;2022-09-09T05:46:54;59.67;;;49.90;;
21890;SDS011;11110;52.386;16.940;2022-09-09T05:49:26;55.83;;;45.88;;
21890;SDS011;11110;52.386;16.940;2022-09-09T05:51:55;59.33;;;50.08;;
21890;SDS011;11110;52.386;16.940;2022-09-09T05:54:23;45.20;;;40.35;;
21890;SDS011;11110;52.386;16.940;2022-09-09T05:56:53;51.90;;;46.47;;
21890;SDS011;11110;52.386;16.940;2022-09-09T05:59:22;52.40;;;46.60;;
21890;SDS011;11110;52.386;16.940;2022-09-09T06:01:53;61.08;;;54.58;;
21890;SDS011;11110;52.386;16.940;2022-09-09T06:04:31;67.78;;;56.90;;
21890;SDS011;11110;52.386;16.940;2022-09-09T06:07:00;68.55;;;59.08;;
21890;SDS011;11110;52.386;16.940;2022-09-09T06:09:29;73.63;;;64.30;;
21890;SDS011;11110;52.386;16.940;2022-09-09T06:11:58;69.20;;;61.88;;
21890;SDS011;11110;52.386;16.940;2022-09-09T06:14:26;63.92;;;56.92;;
21890;SDS011;11110;52.386;16.940;2022-09-09T06:16:58;65.88;;;58.42;;
21890;SDS011;11110;52.386;16.940;2022-09-09T06:19:29;73.10;;;58.25;;
21890;SDS011;11110;52.386;16.940;2022-09-09T06:22:00;68.55;;;60.10;;
21890;SDS011;11110;52.386;16.940;2022-09-09T06:24:30;74.60;;;62.53;;
21890;SDS011;11110;52.386;16.940;2022-09-09T06:27:00;83.25;;;70.60;;
21890;SDS011;11110;52.386;16.940;2022-09-09T06:29:32;82.80;;;66.85;;
21890;SDS011;11110;52.386;16.940;2022-09-09T06:32:01;66.63;;;59.42;;
21890;SDS011;11110;52.386;16.940;2022-09-09T06:34:30;86.38;;;64.65;;
21890;SDS011;11110;52.386;16.940;2022-09-09T06:37:01;68.03;;;58.58;;
21890;SDS011;11110;52.386;16.940;2022-09-09T06:39:35;83.85;;;66.95;;
21890;SDS011;11110;52.386;16.940;2022-09-09T06:42:04;79.38;;;67.75;;
21890;SDS011;11110;52.386;16.940;2022-09-09T06:44:56;76.25;;;66.38;;
21890;SDS011;11110;52.386;16.940;2022-09-09T06:47:35;72.40;;;61.72;;
21890;SDS011;11110;52.386;16.940;2022-09-09T06:50:04;44.60;;;34.78;;
21890;SDS011;11110;52.386;16.940;2022-09-09T06:52:36;61.20;;;51.08;;
21890;SDS011;11110;52.386;16.940;2022-09-09T06:55:07;59.20;;;52.47;;
21890;SDS011;11110;52.386;16.940;2022-09-09T06:57:37;49.85;;;44.05;;
21890;SDS011;11110;52.386;16.940;2022-09-09T07:00:11;69.40;;;57.90;;
21890;SDS011;11110;52.386;16.940;2022-09-09T07:02:40;49.33;;;41.85;;
21890;SDS011;11110;52.386;16.940;2022-09-09T07:05:11;61.95;;;55.63;;
21890;SDS011;11110;52.386;16.940;2022-09-09T07:07:42;63.90;;;55.65;;
21890;SDS011;11110;52.386;16.940;2022-09-09T07:10:13;67.38;;;60.17;;
21890;SDS011;11110;52.386;16.940;2022-09-09T07:12:43;62.28;;;55.38;;
21890;SDS011;11110;52.386;16.940;2022-09-09T07:15:12;57.97;;;51.95;;
21890;SDS011;11110;52.386;16.940;2022-09-09T07:17:43;34.92;;;27.17;;
21890;SDS011;11110;52.386;16.940;2022-09-09T07:20:13;56.95;;;51.10;;
21890;SDS011;11110;52.386;16.940;2022-09-09T07:22:44;59.60;;;53.15;;
21890;SDS011;11110;52.386;16.940;2022-09-09T07:25:12;50.47;;;45.78;;
21890;SDS011;11110;52.386;16.940;2022-09-09T07:27:43;51.78;;;45.60;;
21890;SDS011;11110;52.386;16.940;2022-09-09T07:30:12;53.08;;;47.53;;
21890;SDS011;11110;52.386;16.940;2022-09-09T07:32:50;43.85;;;39.47;;
21890;SDS011;11110;52.386;16.940;2022-09-09T07:35:19;58.78;;;49.65;;
21890;SDS011;11110;52.386;16.940;2022-09-09T07:37:48;56.70;;;50.60;;
21890;SDS011;11110;52.386;16.940;2022-09-09T07:40:18;56.53;;;50.85;;
21890;SDS011;11110;52.386;16.940;2022-09-09T07:42:48;51.17;;;45.88;;
21890;SDS011;11110;52.386;16.940;2022-09-09T07:45:16;51.50;;;46.40;;
21890;SDS011;11110;52.386;16.940;2022-09-09T07:47:44;55.20;;;49.42;;
21890;SDS011;11110;52.386;16.940;2022-09-09T07:50:14;58.35;;;50.42;;
21890;SDS011;11110;52.386;16.940;2022-09-09T07:52:43;59.88;;;53.85;;
21890;SDS011;11110;52.386;16.940;2022-09-09T07:55:13;58.15;;;50.00;;
21890;SDS011;11110;52.386;16.940;2022-09-09T07:57:41;38.67;;;30.75;;
21890;SDS011;11110;52.386;16.940;2022-09-09T08:00:11;50.20;;;45.58;;
21890;SDS011;11110;52.386;16.940;2022-09-09T08:02:46;30.15;;;13.48;;
21890;SDS011;11110;52.386;16.940;2022-09-09T08:05:15;40.17;;;25.50;;
21890;SDS011;11110;52.386;16.940;2022-09-09T08:07:44;32.17;;;29.10;;
21890;SDS011;11110;52.386;16.940;2022-09-09T08:10:15;35.10;;;31.50;;
21890;SDS011;11110;52.386;16.940;2022-09-09T08:12:46;38.42;;;34.63;;
21890;SDS011;11110;52.386;16.940;2022-09-09T08:15:36;38.80;;;35.20;;
21890;SDS011;11110;52.386;16.940;2022-09-09T08:18:04;31.02;;;27.42;;
21890;SDS011;11110;52.386;16.940;2022-09-09T08:20:35;36.63;;;32.97;;
21890;SDS011;11110;52.386;16.940;2022-09-09T08:23:03;35.25;;;32.42;;
21890;SDS011;11110;52.386;16.940;2022-09-09T08:25:34;38.65;;;34.88;;
21890;SDS011;11110;52.386;16.940;2022-09-09T08:28:02;29.95;;;26.83;;
21890;SDS011;11110;52.386;16.940;2022-09-09T08:30:31;31.88;;;28.52;;
21890;SDS011;11110;52.386;16.940;2022-09-09T08:33:00;25.75;;;23.38;;
21890;SDS011;11110;52.386;16.940;2022-09-09T08:35:29;16.75;;;15.48;;
21890;SDS011;11110;52.386;16.940;2022-09-09T08:37:59;24.35;;;21.38;;
21890;SDS011;11110;52.386;16.940;2022-09-09T08:40:32;20.70;;;15.30;;
21890;SDS011;11110;52.386;16.940;2022-09-09T08:43:10;25.80;;;10.32;;
21890;SDS011;11110;52.386;16.940;2022-09-09T08:45:42;37.15;;;21.00;;
21890;SDS011;11110;52.386;16.940;2022-09-09T08:48:28;26.75;;;13.65;;
21890;SDS011;11110;52.386;16.940;2022-09-09T08:51:10;30.38;;;14.75;;
21890;SDS011;11110;52.386;16.940;2022-09-09T08:53:42;28.23;;;13.07;;
21890;SDS011;11110;52.386;16.940;2022-09-09T08:56:16;21.05;;;11.20;;
21890;SDS011;11110;52.386;16.940;2022-09-09T08:58:52;31.70;;;12.30;;
21890;SDS011;11110;52.386;16.940;2022-09-09T09:01:43;33.83;;;10.88;;
21890;SDS011;11110;52.386;16.940;2022-09-09T09:04:41;26.23;;;10.73;;
21890;SDS011;11110;52.386;16.940;2022-09-09T09:07:19;27.58;;;8.63;;
21890;SDS011;11110;52.386;16.940;2022-09-09T09:10:01;20.80;;;7.50;;
21890;SDS011;11110;52.386;16.940;2022-09-09T09:12:54;25.85;;;8.32;;
21890;SDS011;11110;52.386;16.940;2022-09-09T09:15:23;16.77;;;6.57;;
21890;SDS011;11110;52.386;16.940;2022-09-09T09:17:58;27.08;;;7.30;;
21890;SDS011;11110;52.386;16.940;2022-09-09T09:20:28;23.55;;;8.65;;
21890;SDS011;11110;52.386;16.940;2022-09-09T09:23:09;27.80;;;8.52;;
21890;SDS011;11110;52.386;16.940;2022-09-09T09:25:47;22.85;;;6.63;;
21890;SDS011;11110;52.386;16.940;2022-09-09T09:28:20;27.33;;;7.68;;
21890;SDS011;11110;52.386;16.940;2022-09-09T09:30:58;21.25;;;7.15;;
21890;SDS011;11110;52.386;16.940;2022-09-09T09:33:34;20.70;;;5.80;;
21890;SDS011;11110;52.386;16.940;2022-09-09T09:36:07;30.55;;;9.40;;
21890;SDS011;11110;52.386;16.940;2022-09-09T09:38:39;33.03;;;10.18;;
21890;SDS011;11110;52.386;16.940;2022-09-09T09:41:30;29.45;;;9.60;;
21890;SDS011;11110;52.386;16.940;2022-09-09T09:44:06;17.80;;;6.65;;
21890;SDS011;11110;52.386;16.940;2022-09-09T09:46:52;27.63;;;7.07;;
21890;SDS011;11110;52.386;16.940;2022-09-09T09:49:20;18.80;;;6.20;;
21890;SDS011;11110;52.386;16.940;2022-09-09T09:51:49;19.70;;;5.88;;
21890;SDS011;11110;52.386;16.940;2022-09-09T09:54:20;34.65;;;11.15;;
21890;SDS011;11110;52.386;16.940;2022-09-09T09:56:56;25.20;;;12.02;;
21890;SDS011;11110;52.386;16.940;2022-09-09T09:59:38;27.67;;;7.45;;
21890;SDS011;11110;52.386;16.940;2022-09-09T10:02:23;21.15;;;6.35;;
21890;SDS011;11110;52.386;16.940;2022-09-09T10:05:01;20.55;;;5.50;;
21890;SDS011;11110;52.386;16.940;2022-09-09T10:07:33;27.10;;;6.65;;
21890;SDS011;11110;52.386;16.940;2022-09-09T10:10:04;21.52;;;6.65;;
21890;SDS011;11110;52.386;16.940;2022-09-09T10:12:37;28.35;;;8.43;;
21890;SDS011;11110;52.386;16.940;2022-09-09T10:15:25;15.32;;;6.35;;
21890;SDS011;11110;52.386;16.940;2022-09-09T10:18:05;12.40;;;4.63;;
21890;SDS011;11110;52.386;16.940;2022-09-09T10:20:45;22.50;;;5.95;;
21890;SDS011;11110;52.386;16.940;2022-09-09T10:23:26;20.25;;;5.88;;
21890;SDS011;11110;52.386;16.940;2022-09-09T10:26:13;16.27;;;6.53;;
21890;SDS011;11110;52.386;16.940;2022-09-09T10:28:57;36.78;;;8.43;;
21890;SDS011;11110;52.386;16.940;2022-09-09T10:31:42;17.90;;;6.07;;
21890;SDS011;11110;52.386;16.940;2022-09-09T10:34:22;21.00;;;5.93;;
21890;SDS011;11110;52.386;16.940;2022-09-09T10:37:11;15.02;;;5.32;;
21890;SDS011;11110;52.386;16.940;2022-09-09T10:39:53;13.32;;;4.55;;
21890;SDS011;11110;52.386;16.940;2022-09-09T10:42:30;12.55;;;4.60;;
21890;SDS011;11110;52.386;16.940;2022-09-09T10:45:05;20.88;;;5.97;;
21890;SDS011;11110;52.386;16.940;2022-09-09T10:47:52;15.30;;;5.93;;
21890;SDS011;11110;52.386;16.940;2022-09-09T10:50:45;13.75;;;4.78;;
21890;SDS011;11110;52.386;16.940;2022-09-09T10:53:35;23.98;;;6.78;;
21890;SDS011;11110;52.386;16.940;2022-09-09T10:56:12;17.45;;;5.10;;
21890;SDS011;11110;52.386;16.940;2022-09-09T10:58:44;20.35;;;5.47;;
21890;SDS011;11110;52.386;16.940;2022-09-09T11:01:22;20.48;;;5.55;;
21890;SDS011;11110;52.386;16.940;2022-09-09T11:03:56;21.02;;;6.05;;
21890;SDS011;11110;52.386;16.940;2022-09-09T11:06:31;18.45;;;5.53;;
21890;SDS011;11110;52.386;16.940;2022-09-09T11:09:05;14.13;;;4.63;;
21890;SDS011;11110;52.386;16.940;2022-09-09T11:11:36;22.85;;;5.63;;
21890;SDS011;11110;52.386;16.940;2022-09-09T11:14:14;18.60;;;5.07;;
21890;SDS011;11110;52.386;16.940;2022-09-09T11:16:48;31.80;;;7.03;;
21890;SDS011;11110;52.386;16.940;2022-09-09T11:19:24;19.90;;;5.03;;
21890;SDS011;11110;52.386;16.940;2022-09-09T11:21:58;19.85;;;5.10;;
21890;SDS011;11110;52.386;16.940;2022-09-09T11:24:30;16.45;;;3.90;;
21890;SDS011;11110;52.386;16.940;2022-09-09T11:27:05;19.17;;;4.13;;
21890;SDS011;11110;52.386;16.940;2022-09-09T11:29:50;27.27;;;4.82;;
21890;SDS011;11110;52.386;16.940;2022-09-09T11:32:38;14.38;;;4.25;;
21890;SDS011;11110;52.386;16.940;2022-09-09T11:35:24;16.13;;;4.05;;
21890;SDS011;11110;52.386;16.940;2022-09-09T11:38:04;14.35;;;3.40;;
21890;SDS011;11110;52.386;16.940;2022-09-09T11:40:44;20.05;;;5.05;;
21890;SDS011;11110;52.386;16.940;2022-09-09T11:43:13;16.60;;;4.40;;
21890;SDS011;11110;52.386;16.940;2022-09-09T11:45:50;17.70;;;4.20;;
21890;SDS011;11110;52.386;16.940;2022-09-09T11:48:29;14.57;;;3.47;;
21890;SDS011;11110;52.386;16.940;2022-09-09T11:51:07;23.55;;;4.97;;
21890;SDS011;11110;52.386;16.940;2022-09-09T11:53:51;16.50;;;3.90;;
21890;SDS011;11110;52.386;16.940;2022-09-09T11:56:25;31.60;;;6.13;;
21890;SDS011;11110;52.386;16.940;2022-09-09T11:58:57;19.42;;;5.03;;
21890;SDS011;11110;52.386;16.940;2022-09-09T12:01:33;14.80;;;3.65;;
21890;SDS011;11110;52.386;16.940;2022-09-09T12:04:26;7.82;;;2.78;;
21890;SDS011;11110;52.386;16.940;2022-09-09T12:07:01;21.23;;;4.97;;
21890;SDS011;11110;52.386;16.940;2022-09-09T12:09:36;13.75;;;3.97;;
21890;SDS011;11110;52.386;16.940;2022-09-09T12:12:29;12.82;;;3.15;;
21890;SDS011;11110;52.386;16.940;2022-09-09T12:15:17;15.88;;;3.83;;
21890;SDS011;11110;52.386;16.940;2022-09-09T12:17:52;24.77;;;5.03;;
21890;SDS011;11110;52.386;16.940;2022-09-09T12:20:31;16.60;;;4.45;;
21890;SDS011;11110;52.386;16.940;2022-09-09T12:23:05;16.63;;;4.53;;
21890;SDS011;11110;52.386;16.940;2022-09-09T12:25:54;16.13;;;4.10;;
21890;SDS011;11110;52.386;16.940;2022-09-09T12:28:41;12.63;;;3.30;;
21890;SDS011;11110;52.386;16.940;2022-09-09T12:31:16;10.48;;;3.70;;
21890;SDS011;11110;52.386;16.940;2022-09-09T12:33:49;16.77;;;4.68;;
21890;SDS011;11110;52.386;16.940;2022-09-09T12:36:19;11.88;;;3.80;;
21890;SDS011;11110;52.386;16.940;2022-09-09T12:38:53;17.77;;;4.43;;
21890;SDS011;11110;52.386;16.940;2022-09-09T12:41:26;17.73;;;4.13;;
21890;SDS011;11110;52.386;16.940;2022-09-09T12:44:03;11.07;;;3.47;;
21890;SDS011;11110;52.386;16.940;2022-09-09T12:46:33;13.75;;;3.97;;
21890;SDS011;11110;52.386;16.940;2022-09-09T12:49:03;9.38;;;3.53;;
21890;SDS011;11110;52.386;16.940;2022-09-09T12:51:32;12.35;;;3.78;;
21890;SDS011;11110;52.386;16.940;2022-09-09T12:54:03;13.90;;;3.35;;
21890;SDS011;11110;52.386;16.940;2022-09-09T12:56:32;15.45;;;3.92;;
21890;SDS011;11110;52.386;16.940;2022-09-09T12:59:02;15.10;;;4.15;;
21890;SDS011;11110;52.386;16.940;2022-09-09T13:01:31;17.95;;;4.03;;
21890;SDS011;11110;52.386;16.940;2022-09-09T13:04:01;14.63;;;3.67;;
21890;SDS011;11110;52.386;16.940;2022-09-09T13:06:30;16.48;;;3.67;;
21890;SDS011;11110;52.386;16.940;2022-09-09T13:09:00;15.60;;;3.53;;
21890;SDS011;11110;52.386;16.940;2022-09-09T13:11:31;19.70;;;4.78;;
21890;SDS011;11110;52.386;16.940;2022-09-09T13:14:04;7.72;;;2.55;;
21890;SDS011;11110;52.386;16.940;2022-09-09T13:16:34;24.25;;;4.40;;
21890;SDS011;11110;52.386;16.940;2022-09-09T13:19:09;16.95;;;5.22;;
21890;SDS011;11110;52.386;16.940;2022-09-09T13:21:43;14.50;;;3.50;;
21890;SDS011;11110;52.386;16.940;2022-09-09T13:24:24;9.40;;;2.75;;
21890;SDS011;11110;52.386;16.940;2022-09-09T13:26:58;17.88;;;3.15;;
21890;SDS011;11110;52.386;16.940;2022-09-09T13:29:29;14.07;;;3.17;;
21890;SDS011;11110;52.386;16.940;2022-09-09T13:32:03;12.55;;;2.80;;
21890;SDS011;11110;52.386;16.940;2022-09-09T13:34:33;16.65;;;3.60;;
21890;SDS011;11110;52.386;16.940;2022-09-09T13:37:03;13.82;;;3.05;;
21890;SDS011;11110;52.386;16.940;2022-09-09T13:39:34;8.57;;;3.38;;
21890;SDS011;11110;52.386;16.940;2022-09-09T13:42:05;20.48;;;4.25;;
21890;SDS011;11110;52.386;16.940;2022-09-09T13:44:49;12.18;;;2.83;;
21890;SDS011;11110;52.386;16.940;2022-09-09T13:47:18;17.55;;;3.90;;
21890;SDS011;11110;52.386;16.940;2022-09-09T13:49:48;14.20;;;2.85;;
21890;SDS011;11110;52.386;16.940;2022-09-09T13:52:17;12.88;;;3.08;;
21890;SDS011;11110;52.386;16.940;2022-09-09T13:54:47;11.40;;;2.85;;
21890;SDS011;11110;52.386;16.940;2022-09-09T13:57:19;15.25;;;2.90;;
21890;SDS011;11110;52.386;16.940;2022-09-09T13:59:49;10.40;;;2.25;;
21890;SDS011;11110;52.386;16.940;2022-09-09T14:02:31;25.05;;;4.85;;
21890;SDS011;11110;52.386;16.940;2022-09-09T14:05:00;11.45;;;2.70;;
21890;SDS011;11110;52.386;16.940;2022-09-09T14:07:28;19.85;;;4.78;;
21890;SDS011;11110;52.386;16.940;2022-09-09T14:09:57;22.42;;;4.05;;
21890;SDS011;11110;52.386;16.940;2022-09-09T14:12:27;10.52;;;2.45;;
21890;SDS011;11110;52.386;16.940;2022-09-09T14:14:56;27.60;;;4.85;;
21890;SDS011;11110;52.386;16.940;2022-09-09T14:17:26;15.10;;;3.28;;
21890;SDS011;11110;52.386;16.940;2022-09-09T14:19:57;11.95;;;2.28;;
21890;SDS011;11110;52.386;16.940;2022-09-09T14:22:25;7.35;;;1.70;;
21890;SDS011;11110;52.386;16.940;2022-09-09T14:24:55;11.30;;;2.45;;
21890;SDS011;11110;52.386;16.940;2022-09-09T14:27:24;14.00;;;3.25;;
21890;SDS011;11110;52.386;16.940;2022-09-09T14:29:54;16.13;;;3.50;;
21890;SDS011;11110;52.386;16.940;2022-09-09T14:32:24;15.55;;;2.97;;
21890;SDS011;11110;52.386;16.940;2022-09-09T14:34:53;15.23;;;3.20;;
21890;SDS011;11110;52.386;16.940;2022-09-09T14:37:21;13.68;;;2.72;;
21890;SDS011;11110;52.386;16.940;2022-09-09T14:39:50;21.10;;;3.58;;
21890;SDS011;11110;52.386;16.940;2022-09-09T14:42:20;8.93;;;2.17;;
21890;SDS011;11110;52.386;16.940;2022-09-09T14:44:48;13.95;;;3.05;;
21890;SDS011;11110;52.386;16.940;2022-09-09T14:47:18;27.60;;;4.35;;
21890;SDS011;11110;52.386;16.940;2022-09-09T14:49:46;21.10;;;4.03;;
21890;SDS011;11110;52.386;16.940;2022-09-09T14:52:16;13.73;;;3.22;;